Latest Coastal Weather Observations for Friendly Beaches

IDT60701

Issued at 6:42 pm EDT Friday 3 December 2021 (issued every 10 minutes, with the page automatically refreshed every 10 minutes)

About coastal observations | Map of coastal stations | Coastal observations for TAS | Marine services | Other Formats
Station Details ID: 092114 Name: FRIENDLY BEACHES Lat: -42.00 Lon: 148.28 Height: 55.0 m
Data from the previous 72 hours. | See also: Recent months at Friendly Beaches
Date/Time
EDT
Wind Sea
Height
m
Swell Vis
km
Cloud Weather Temp
°C
Press
MSL
hPa
Rain since
9am
mm
Dir  Spd
kts
Gust
kts
Height
m
Period
s
Dir
03/06:30pm NNE 10 17 - - - - - - - 15.6 1013.7 0.0
03/06:00pm NNE 9 14 - - - - - - - 15.0 1014.0 0.0
03/05:30pm NE 8 13 - - - - - - - 14.2 1014.4 0.0
03/05:00pm NE 8 13 - - - - - - - 14.0 1014.8 0.0
03/04:30pm NE 8 12 - - - - - - - 14.2 1015.2 0.0
03/04:00pm ENE 7 11 - - - - - - - 14.5 1015.4 0.0
03/03:30pm ENE 7 11 - - - - - - - 14.7 1015.8 0.0
03/03:00pm E 8 12 - - - - - - - 15.1 1016.0 0.0
03/02:30pm E 8 11 - - - - - - - 16.0 1016.2 0.0
03/02:00pm E 8 12 - - - - - - - 18.4 1016.2 0.0
03/01:30pm E 9 13 - - - - - - - 19.0 1016.3 0.0
03/01:00pm ESE 8 11 - - - - - - - 19.3 1016.3 0.0
03/12:30pm ESE 9 11 - - - - - - - 17.9 1016.5 0.0
03/12:00pm ESE 9 12 - - - - - - - 18.8 1016.4 0.0
03/11:30am ESE 9 11 - - - - - - - 18.9 1016.6 0.0
03/11:00am SE 10 12 - - - - - - - 18.5 1016.6 0.0
03/10:30am SE 10 14 - - - - - - - 18.9 1016.7 0.0
03/10:00am SE 9 13 - - - - - - - 16.9 1016.7 0.0
03/09:30am SSE 7 10 - - - - - - - 16.4 1016.6 0.0
03/09:00am SSE 6 10 - - - - - - - 17.3 1016.3 4.8
03/08:30am SSW 6 11 - - - - - - - 16.3 1016.0 4.8
03/08:00am SW 6 11 - - - - - - - 15.6 1015.7 4.8
03/07:30am SSW 6 11 - - - - - - - 14.9 1015.4 4.8
03/07:00am SW 4 8 - - - - - - - 14.0 1014.9 4.8
03/06:30am SW 4 6 - - - - - - - 11.9 1014.5 4.8
03/06:00am SSW 3 5 - - - - - - - 11.0 1013.8 4.8
03/05:30am S 7 10 - - - - - - - 11.5 1013.2 4.8
03/05:00am S 5 9 - - - - - - - 12.4 1013.0 4.8
03/04:30am S 4 7 - - - - - - - 13.0 1012.5 4.8
03/04:00am SSE 3 8 - - - - - - - 13.5 1012.4 4.8
03/03:30am S 4 9 - - - - - - - 13.7 1011.9 4.8
03/03:00am SSW 4 11 - - - - - - - 14.0 1011.6 4.8
03/02:30am S 5 10 - - - - - - - 14.2 1011.3 4.8
03/02:00am SSW 3 5 - - - - - - - 14.1 1011.1 4.8
03/01:30am SW 3 4 - - - - - - - 14.8 1011.1 4.8
03/01:00am W 3 5 - - - - - - - 15.3 1011.4 4.8
03/12:30am WSW 1 5 - - - - - - - 15.1 1011.5 4.8
03/12:00am S 4 7 - - - - - - Recent precip. 14.7 1012.0 4.8
 
Date/Time
EDT
Wind Sea
Height
m
Swell Vis
km
Cloud Weather Temp
°C
Press
MSL
hPa
Rain since
9am
mm
Dir  Spd
kts
Gust
kts
Height
m
Period
s
Dir
02/11:30pm SSE 4 7 - - - - - - - 15.8 1011.7 4.8
02/11:00pm NNE 3 7 - - - - - - - 16.1 1011.4 4.6
02/10:30pm W 3 6 - - - - - - - 16.4 1011.5 4.6
02/10:01pm NW 15 27 - - - - - - - 17.0 1010.9 3.0
02/10:00pm NW 15 24 - - - - - - - 17.1 1010.9 3.0
02/09:30pm N 11 17 - - - - - - - 20.4 1009.0 0.0
02/09:00pm N 8 14 - - - - - - - 21.4 1008.3 0.0
02/08:30pm N 10 15 - - - - - - - 21.4 1008.2 0.0
02/08:00pm N 8 13 - - - - - - - 22.3 1007.8 0.0
02/07:30pm NNE 10 14 - - - - - - - 18.7 1008.2 0.0
02/07:00pm N 12 19 - - - - - - - 21.6 1008.4 0.0
02/06:30pm N 11 20 - - - - - - - 21.9 1008.1 0.0
02/06:00pm NNE 13 20 - - - - - - - 21.5 1007.9 0.0
02/05:30pm NNE 14 20 - - - - - - - 21.7 1008.4 0.0
02/05:00pm N 15 25 - - - - - - - 20.8 1008.5 0.0
02/04:53pm N 15 25 - - - - - - - 20.8 1008.5 0.0
02/04:30pm NNE 14 21 - - - - - - - 21.8 1008.5 0.0
02/04:00pm NNE 16 26 - - - - - - - 22.6 1008.8 0.0
02/03:57pm NNE 15 26 - - - - - - - 22.7 1008.8 0.0
02/03:30pm NNE 15 24 - - - - - - - 21.0 1009.5 0.0
02/03:00pm NNE 12 20 - - - - - - - 24.1 1009.7 0.0
02/02:30pm NNE 12 18 - - - - - - - 27.1 1009.9 0.0
02/02:00pm NNE 15 23 - - - - - - - 23.6 1010.4 0.0
02/01:30pm NNE 15 22 - - - - - - - 25.2 1010.7 0.0
02/01:00pm NNE 12 21 - - - - - - - 23.7 1011.2 0.0
02/12:30pm NNE 11 17 - - - - - - - 24.1 1011.5 0.0
02/12:00pm NNE 11 18 - - - - - - - 21.2 1011.8 0.0
02/11:30am NE 12 19 - - - - - - - 19.8 1012.3 0.0
02/11:00am NE 8 15 - - - - - - - 19.6 1013.0 0.0
02/10:30am NE 8 14 - - - - - - - 18.8 1013.6 0.0
02/10:00am ENE 7 11 - - - - - - - 17.5 1013.8 0.0
02/09:30am ENE 4 7 - - - - - - - 16.6 1014.0 0.0
02/09:00am ENE 4 6 - - - - - - - 16.2 1014.2 0.0
02/08:30am E 4 6 - - - - - - - 15.5 1014.2 0.0
02/08:00am ENE 4 7 - - - - - - - 15.2 1014.1 0.0
02/07:30am ENE 4 7 - - - - - - - 14.9 1014.0 0.0
02/07:00am NE 4 6 - - - - - - - 14.9 1014.2 0.0
02/06:30am NE 4 7 - - - - - - - 14.7 1014.0 0.0
02/06:00am NNE 5 6 - - - - - - - 14.4 1013.9 0.0
02/05:30am NE 3 5 - - - - - - - 14.2 1013.9 0.0
02/05:00am NNE 3 5 - - - - - - - 13.8 1013.7 0.0
02/04:30am NNE 3 4 - - - - - - - 13.2 1013.7 0.0
02/04:00am N 2 2 - - - - - - - 13.5 1013.8 0.0
02/03:30am CALM 0 0 - - - - - - - 13.7 1013.7 0.0
02/03:00am WNW 2 3 - - - - - - - 14.0 1013.5 0.0
02/02:30am W 3 4 - - - - - - - 14.3 1013.9 0.0
02/02:00am W 4 6 - - - - - - - 14.6 1014.0 0.0
02/01:30am W 5 7 - - - - - - - 14.6 1014.1 0.0
02/01:00am WNW 4 6 - - - - - - - 14.4 1014.0 0.0
02/12:30am W 1 3 - - - - - - - 15.1 1014.2 0.0
02/12:00am W 4 5 - - - - - - - 15.3 1014.0 0.0
 
Date/Time
EDT
Wind Sea
Height
m
Swell Vis
km
Cloud Weather Temp
°C
Press
MSL
hPa
Rain since
9am
mm
Dir  Spd
kts
Gust
kts
Height
m
Period
s
Dir
01/11:30pm W 6 8 - - - - - - - 15.9 1013.7 0.0
01/11:00pm S 2 6 - - - - - - - 15.9 1013.5 0.0
01/10:30pm W 5 7 - - - - - - - 16.0 1013.4 0.0
01/10:00pm SSW 4 5 - - - - - - - 15.4 1012.9 0.0
01/09:30pm S 5 8 - - - - - - - 15.5 1012.5 0.0
01/09:00pm SSW 5 6 - - - - - - - 15.8 1012.3 0.0
01/08:30pm SSE 2 3 - - - - - - - 16.6 1012.2 0.0
01/08:00pm NE 5 6 - - - - - - - 18.1 1012.0 0.0
01/07:30pm NE 4 5 - - - - - - - 19.8 1011.9 0.0
01/07:00pm NNE 5 7 - - - - - - - 19.7 1011.6 0.0
01/06:30pm NNE 7 11 - - - - - - - 19.2 1011.5 0.0
01/06:00pm NNE 9 15 - - - - - - - 19.8 1011.2 0.0
01/05:30pm NE 9 13 - - - - - - - 20.7 1011.4 0.0
01/05:00pm NNE 8 14 - - - - - - - 21.9 1011.8 0.0
01/04:30pm NNE 9 16 - - - - - - - 21.1 1011.9 0.0
01/04:00pm NNE 11 17 - - - - - - - 21.8 1011.8 0.0
01/03:30pm NNE 11 19 - - - - - - - 22.2 1012.2 0.0
01/03:00pm NNE 12 18 - - - - - - - 23.4 1012.2 0.0
01/02:30pm NNE 12 17 - - - - - - - 23.2 1012.3 0.0
01/02:00pm NNE 14 20 - - - - - - - 22.4 1012.3 0.0
01/01:30pm NNE 15 23 - - - - - - - 23.5 1012.4 0.0
01/01:00pm NNE 15 21 - - - - - - - 22.7 1012.7 0.0
01/12:30pm NNE 14 22 - - - - - - - 22.6 1012.7 0.0
01/12:00pm NNE 16 24 - - - - - - - 22.0 1012.7 0.0
01/11:30am NNE 15 23 - - - - - - - 21.8 1013.0 0.0
01/11:00am NNE 15 22 - - - - - - - 22.7 1013.2 0.0
01/10:30am NNE 13 20 - - - - - - - 22.2 1013.4 0.0
01/10:00am NNE 13 18 - - - - - - - 21.9 1013.5 0.0
01/09:30am NNE 14 19 - - - - - - - 21.0 1013.5 0.0
01/09:00am NNE 9 15 - - - - - - - 20.4 1013.7 0.0
01/08:30am NNE 8 16 - - - - - - - 19.3 1013.8 0.0
01/08:00am N 4 7 - - - - - - - 18.2 1013.8 0.0
01/07:30am NNW 2 5 - - - - - - - 17.5 1013.8 0.0
01/07:00am CALM 0 2 - - - - - - - 16.1 1013.6 0.0
01/06:30am CALM 0 0 - - - - - - - 13.9 1013.6 0.0
01/06:00am CALM 0 1 - - - - - - - 13.2 1013.5 0.0
01/05:00am NNW 4 5 - - - - - - - 12.7 1013.4 0.0
01/04:30am NNE 2 4 - - - - - - - 12.5 1013.3 0.0
01/04:00am N 4 7 - - - - - - - 13.6 1013.4 0.0
01/03:30am NW 4 6 - - - - - - - 13.1 1013.5 0.0
01/03:00am NNW 5 7 - - - - - - - 13.6 1013.5 0.0
01/02:30am N 6 10 - - - - - - - 14.3 1013.7 0.0
01/02:00am N 7 12 - - - - - - - 14.6 1013.8 0.0
01/01:30am N 5 9 - - - - - - - 14.7 1014.2 0.0
01/01:00am N 9 13 - - - - - - - 14.9 1014.2 0.0
01/12:30am N 9 15 - - - - - - - 15.2 1014.8 0.0
01/12:00am N 11 17 - - - - - - - 15.2 1014.9 0.0
 
Date/Time
EDT
Wind Sea
Height
m
Swell Vis
km
Cloud Weather Temp
°C
Press
MSL
hPa
Rain since
9am
mm
Dir  Spd
kts
Gust
kts
Height
m
Period
s
Dir
30/11:30pm N 12 17 - - - - - - - 15.2 1014.9 0.0
30/11:00pm NNE 12 17 - - - - - - - 15.1 1014.9 0.0
30/10:30pm N 12 21 - - - - - - - 15.3 1015.0 0.0
30/10:00pm NNE 14 24 - - - - - - - 15.4 1015.0 0.0
30/09:30pm NNE 15 22 - - - - - - - 15.3 1014.9 0.0
30/09:00pm NNE 14 21 - - - - - - - 15.3 1014.5 0.0
30/08:38pm NNE 17 27 - - - - - - - 15.5 1014.4 0.0
30/08:30pm NNE 16 26 - - - - - - - 15.6 1014.5 0.0
30/08:00pm NNE 15 25 - - - - - - - 15.8 1014.3 0.0
30/07:34pm NNE 16 26 - - - - - - - 16.1 1014.2 0.0
30/07:30pm NNE 16 25 - - - - - - - 16.2 1014.3 0.0
30/07:14pm NNE 16 28 - - - - - - - 16.5 1014.2 0.0
30/07:00pm NNE 16 24 - - - - - - - 16.9 1014.2 0.0

Other formats

Comma delimited format used in spreadsheet applications
http://www.bom.gov.au/fwo/IDT60701/IDT60701.94987.axf

JavaScript Object Notation format (JSON) in row-major order
http://www.bom.gov.au/fwo/IDT60701/IDT60701.94987.json

Data quality

Most of these data are generated automatically and are frequently updated. Quality checks on data are not normally performed. It is possible for incorrect values to appear. Refer to information at About Latest Weather Observations and please check the disclaimer before using these data.